Time;durP1;ratioP1;P1;durP2;ratioP2;P2;SDS_P1;SDS_P2;PMS_P1;PMS_P2;Temp;Humidity;BMP_temperature;BMP_pressure;BME280_temperature;BME280_humidity;BME280_pressure;Samples;Min_cycle;Max_cycle;Signal;HPM_P1;HPM_P2
2024/03/24 00:01:59;;;;;;;5.90;1.63;;;;;;;5.23;100.00;101166.53;5014251;28;20037;-74
2024/03/24 00:04:24;;;;;;;2.47;1.85;;;;;;;5.12;100.00;101157.78;5028837;28;20040;-74
2024/03/24 00:06:53;;;;;;;8.38;1.30;;;;;;;4.90;100.00;101161.44;5007542;28;20045;-74
2024/03/24 00:09:18;;;;;;;4.32;1.17;;;;;;;4.84;100.00;101162.75;5009867;28;20037;-75
2024/03/24 00:11:44;;;;;;;1.45;1.05;;;;;;;4.82;100.00;101165.56;5005933;28;20067;-74
2024/03/24 00:14:10;;;;;;;3.40;0.73;;;;;;;4.72;100.00;101161.16;5017690;28;20049;-74
2024/03/24 00:16:36;;;;;;;7.93;1.35;;;;;;;4.65;100.00;101160.78;5017997;28;20036;-74
2024/03/24 00:19:03;;;;;;;7.38;1.15;;;;;;;4.50;100.00;101159.41;5013682;28;20473;-74
2024/03/24 00:21:31;;;;;;;6.15;1.35;;;;;;;4.35;100.00;101166.84;5017968;28;20099;-74
2024/03/24 00:23:58;;;;;;;5.70;1.63;;;;;;;4.19;100.00;101167.25;5013504;28;20537;-74
2024/03/24 00:26:25;;;;;;;5.38;1.10;;;;;;;4.02;100.00;101165.94;5015273;28;20037;-74
2024/03/24 00:28:51;;;;;;;9.45;2.25;;;;;;;3.96;100.00;101163.78;5033006;28;20034;-74
2024/03/24 00:31:19;;;;;;;9.60;1.52;;;;;;;3.95;100.00;101159.44;5009915;28;20044;-74
2024/03/24 00:33:45;;;;;;;4.88;1.70;;;;;;;4.03;100.00;101166.78;5036716;28;20040;-74
2024/03/24 00:36:10;;;;;;;4.40;1.20;;;;;;;4.13;100.00;101165.09;5023109;28;20038;-74
2024/03/24 00:38:36;;;;;;;10.43;1.83;;;;;;;4.26;100.00;101159.59;5013210;28;20490;-74
2024/03/24 00:41:02;;;;;;;5.50;1.10;;;;;;;4.33;100.00;101150.16;5017741;28;20054;-74
2024/03/24 00:43:28;;;;;;;5.15;1.52;;;;;;;4.34;100.00;101150.03;5027269;28;20037;-74
2024/03/24 00:45:53;;;;;;;5.13;1.40;;;;;;;4.33;100.00;101150.16;5024065;28;20103;-74
2024/03/24 00:48:19;;;;;;;3.70;1.00;;;;;;;4.26;100.00;101147.16;5028397;28;20471;-74
2024/03/24 00:50:46;;;;;;;7.28;1.65;;;;;;;4.14;100.00;101145.47;5019347;28;20467;-74
2024/03/24 00:53:11;;;;;;;5.53;1.35;;;;;;;3.95;100.00;101146.13;5019859;28;20131;-74
2024/03/24 00:55:40;;;;;;;4.97;1.30;;;;;;;3.86;100.00;101145.03;5008608;28;20029;-74
2024/03/24 00:58:07;;;;;;;2.88;1.10;;;;;;;3.84;100.00;101135.50;5038781;28;20037;-74
2024/03/24 01:00:33;;;;;;;3.78;1.33;;;;;;;3.82;100.00;101140.09;5029059;28;20026;-75
2024/03/24 01:02:59;;;;;;;6.40;1.42;;;;;;;3.80;100.00;101137.56;5023510;28;20073;-74
2024/03/24 01:05:24;;;;;;;5.97;1.35;;;;;;;3.72;100.00;101132.84;5014480;28;20078;-74
2024/03/24 01:07:50;;;;;;;9.68;1.58;;;;;;;3.80;100.00;101137.56;5033149;28;20034;-74
2024/03/24 01:10:16;;;;;;;7.28;1.38;;;;;;;3.85;100.00;101139.84;5022314;28;20037;-74
2024/03/24 01:12:43;;;;;;;5.45;1.00;;;;;;;3.79;100.00;101137.69;5001045;28;20120;-74
2024/03/24 01:15:11;;;;;;;3.42;1.00;;;;;;;3.81;100.00;101141.03;5014215;28;20026;-74
2024/03/24 01:17:37;;;;;;;8.80;1.33;;;;;;;3.80;100.00;101142.88;5052864;28;20076;-74
2024/03/24 01:20:03;;;;;;;6.25;1.23;;;;;;;3.85;100.00;101140.69;5045808;28;20120;-74
2024/03/24 01:22:29;;;;;;;11.65;1.55;;;;;;;3.89;100.00;101133.28;5037809;28;20110;-74
2024/03/24 01:24:55;;;;;;;5.75;1.13;;;;;;;3.84;100.00;101139.00;5021599;28;20062;-75
2024/03/24 01:27:20;;;;;;;1.20;0.68;;;;;;;3.77;100.00;101143.13;5017156;28;20450;-74
2024/03/24 01:29:46;;;;;;;8.98;1.40;;;;;;;3.70;100.00;101139.25;5019501;28;20458;-74
2024/03/24 01:32:14;;;;;;;4.07;1.33;;;;;;;3.59;100.00;101140.09;5003859;28;20045;-74
2024/03/24 01:34:39;;;;;;;6.68;1.30;;;;;;;3.57;100.00;101141.19;5021156;28;20036;-74
2024/03/24 01:37:05;;;;;;;6.22;1.02;;;;;;;3.40;100.00;101146.03;5008652;28;20040;-74
2024/03/24 01:39:31;;;;;;;3.38;1.10;;;;;;;3.27;100.00;101142.63;5032472;28;20064;-74
2024/03/24 01:41:57;;;;;;;7.57;1.52;;;;;;;3.21;100.00;101137.81;5021354;28;20069;-74
2024/03/24 01:44:23;;;;;;;8.75;1.40;;;;;;;3.06;100.00;101132.69;5007292;28;20041;-74
2024/03/24 01:46:49;;;;;;;5.00;1.25;;;;;;;3.06;100.00;101132.69;5019327;28;20373;-74
2024/03/24 01:49:14;;;;;;;4.60;1.35;;;;;;;2.66;100.00;101126.06;5020795;28;20076;-74
2024/03/24 01:51:40;;;;;;;4.18;1.23;;;;;;;2.49;100.00;101132.63;5011773;28;20457;-74
2024/03/24 01:54:07;;;;;;;6.07;1.30;;;;;;;2.33;100.00;101114.34;5011378;28;20055;-74
2024/03/24 01:56:32;;;;;;;7.05;0.90;;;;;;;2.18;100.00;101108.38;5032033;28;20072;-74
2024/03/24 01:58:58;;;;;;;8.95;1.50;;;;;;;2.42;100.00;101118.97;5008311;28;20053;-74
2024/03/24 02:01:24;;;;;;;9.43;1.40;;;;;;;2.45;100.00;101124.06;5030964;28;20033;-76
2024/03/24 02:03:50;;;;;;;6.45;1.98;;;;;;;2.51;100.00;101123.59;5012181;28;20038;-74
2024/03/24 02:06:15;;;;;;;11.95;2.22;;;;;;;2.53;100.00;101118.19;5003074;28;20048;-74
2024/03/24 02:08:41;;;;;;;3.45;1.33;;;;;;;2.55;100.00;101113.59;5018658;28;20040;-74
2024/03/24 02:11:06;;;;;;;5.55;1.15;;;;;;;2.69;100.00;101116.06;5018935;28;20029;-74
2024/03/24 02:13:32;;;;;;;2.30;1.10;;;;;;;2.91;100.00;101107.31;5018520;28;20031;-75
2024/03/24 02:15:58;;;;;;;3.45;1.30;;;;;;;3.08;100.00;101111.31;5000902;28;20072;-74
2024/03/24 02:18:24;;;;;;;7.13;1.30;;;;;;;3.24;100.00;101103.84;5005854;28;20057;-74
2024/03/24 02:20:50;;;;;;;5.78;1.30;;;;;;;3.38;100.00;101105.41;5065021;28;20406;-74
2024/03/24 02:23:16;;;;;;;5.50;1.27;;;;;;;3.47;100.00;101101.22;5029040;28;20083;-74
2024/03/24 02:25:41;;;;;;;4.82;1.63;;;;;;;3.41;100.00;101102.50;5005851;28;20049;-74
2024/03/24 02:28:07;;;;;;;5.35;1.20;;;;;;;3.42;100.00;101101.56;5041227;28;20065;-74
2024/03/24 02:30:33;;;;;;;8.05;1.70;;;;;;;3.51;100.00;101103.47;5019700;28;20072;-74
2024/03/24 02:32:58;;;;;;;11.55;1.48;;;;;;;3.55;100.00;101100.56;4997210;28;20057;-74
2024/03/24 02:35:27;;;;;;;2.88;1.75;;;;;;;3.55;100.00;101095.25;5047292;28;20029;-75
2024/03/24 02:37:52;;;;;;;7.45;1.48;;;;;;;3.58;100.00;101089.72;5023885;28;20026;-75
2024/03/24 02:40:18;;;;;;;8.38;2.05;;;;;;;3.61;100.00;101089.47;5029623;28;20465;-75
2024/03/24 02:42:44;;;;;;;3.85;1.30;;;;;;;3.65;100.00;101096.22;5006618;28;20044;-74
2024/03/24 02:45:11;;;;;;;5.70;1.30;;;;;;;3.71;100.00;101083.28;5036309;28;20074;-74
2024/03/24 02:47:40;;;;;;;9.80;1.98;;;;;;;3.78;100.00;101091.59;5011589;28;20057;-74
2024/03/24 02:50:06;;;;;;;5.60;1.25;;;;;;;3.87;100.00;101084.72;5032527;28;20040;-74
2024/03/24 02:52:33;;;;;;;9.43;1.13;;;;;;;3.94;100.00;101084.09;5017762;28;20106;-74
2024/03/24 02:54:59;;;;;;;6.78;1.30;;;;;;;4.00;100.00;101087.22;5034289;28;20068;-74
2024/03/24 02:57:25;;;;;;;10.55;1.60;;;;;;;4.04;100.00;101091.31;5001809;28;20058;-74
2024/03/24 02:59:51;;;;;;;4.95;1.00;;;;;;;4.09;100.00;101089.13;5025437;28;20038;-74
2024/03/24 03:02:17;;;;;;;9.38;1.98;;;;;;;4.17;100.00;101082.19;5008637;28;20431;-74
2024/03/24 03:04:43;;;;;;;7.47;1.50;;;;;;;4.24;100.00;101081.69;5035816;28;20072;-74
2024/03/24 03:07:11;;;;;;;4.82;1.05;;;;;;;4.25;100.00;101078.91;5025800;28;20088;-74
2024/03/24 03:09:36;;;;;;;5.28;1.70;;;;;;;4.36;100.00;101075.34;5031841;28;20396;-74
2024/03/24 03:12:02;;;;;;;3.75;1.13;;;;;;;4.46;100.00;101081.59;5016021;28;20034;-74
2024/03/24 03:14:28;;;;;;;5.78;1.92;;;;;;;4.47;100.00;101077.09;5019682;28;20044;-74
2024/03/24 03:16:53;;;;;;;6.22;1.30;;;;;;;4.52;100.00;101082.91;5002588;28;20499;-75
2024/03/24 03:19:19;;;;;;;8.18;1.73;;;;;;;4.48;100.00;101074.31;5018909;28;20388;-75
2024/03/24 03:21:45;;;;;;;7.57;1.30;;;;;;;4.44;100.00;101072.03;5031998;28;20383;-74
2024/03/24 03:24:10;;;;;;;12.23;2.33;;;;;;;4.32;100.00;101074.75;5029605;28;20036;-74
2024/03/24 03:26:36;;;;;;;7.28;1.80;;;;;;;4.18;100.00;101069.72;5007680;28;20037;-74
2024/03/24 03:29:01;;;;;;;10.95;3.72;;;;;;;4.08;100.00;101074.97;5011863;28;20042;-74
2024/03/24 03:31:27;;;;;;;6.30;1.45;;;;;;;4.00;100.00;101060.63;5015927;28;20061;-74
2024/03/24 03:33:53;;;;;;;6.53;1.35;;;;;;;3.95;100.00;101064.50;5020299;28;20469;-74
2024/03/24 03:36:18;;;;;;;7.32;1.55;;;;;;;3.91;100.00;101060.38;5028993;28;20041;-74
2024/03/24 03:38:44;;;;;;;11.30;2.88;;;;;;;3.88;100.00;101063.28;5004744;28;20038;-74
2024/03/24 03:41:10;;;;;;;5.93;2.60;;;;;;;3.84;100.00;101059.22;5028296;28;20084;-74
2024/03/24 03:43:35;;;;;;;9.52;1.77;;;;;;;3.84;100.00;101064.53;5013688;28;20479;-74
2024/03/24 03:46:01;;;;;;;11.18;3.35;;;;;;;3.91;100.00;101062.19;5023313;28;20037;-74
2024/03/24 03:48:27;;;;;;;8.50;2.17;;;;;;;3.93;100.00;101058.44;5004493;28;20038;-74
2024/03/24 03:50:53;;;;;;;6.97;2.10;;;;;;;3.93;100.00;101061.09;4984092;28;20041;-74
2024/03/24 03:53:22;;;;;;;10.85;2.70;;;;;;;3.96;100.00;101063.50;5027348;28;20039;-74
2024/03/24 03:55:51;;;;;;;9.40;1.67;;;;;;;3.99;100.00;101066.91;5018380;28;20038;-74
2024/03/24 03:58:18;;;;;;;5.15;1.85;;;;;;;4.00;100.00;101057.97;5006327;28;20041;-74
2024/03/24 04:00:46;;;;;;;5.18;1.50;;;;;;;4.01;100.00;101052.50;5014396;28;20045;-74
2024/03/24 04:03:12;;;;;;;12.13;2.28;;;;;;;4.02;100.00;101050.69;5023735;28;20610;-74
2024/03/24 04:05:38;;;;;;;8.32;1.40;;;;;;;4.06;100.00;101052.13;5034313;28;20036;-74
2024/03/24 04:08:05;;;;;;;6.45;1.52;;;;;;;4.09;100.00;101043.88;5030748;28;20032;-74
2024/03/24 04:10:31;;;;;;;7.82;1.65;;;;;;;4.17;100.00;101044.94;5027459;28;20091;-74
2024/03/24 04:12:57;;;;;;;4.47;1.33;;;;;;;4.26;100.00;101048.66;5016166;28;20033;-74
2024/03/24 04:15:22;;;;;;;7.05;1.15;;;;;;;4.32;100.00;101042.81;5018008;28;20439;-74
2024/03/24 04:17:48;;;;;;;6.18;1.17;;;;;;;4.35;100.00;101039.06;5000807;28;20435;-74
2024/03/24 04:20:14;;;;;;;6.75;1.50;;;;;;;4.34;100.00;101040.88;5011408;28;20026;-74
2024/03/24 04:22:41;;;;;;;5.53;1.20;;;;;;;4.33;100.00;101039.16;5016668;28;20037;-74
2024/03/24 04:25:06;;;;;;;6.18;1.27;;;;;;;4.36;100.00;101033.59;5002203;28;20095;-74
2024/03/24 04:27:32;;;;;;;9.48;1.65;;;;;;;4.40;100.00;101037.69;5019708;28;20040;-74
2024/03/24 04:29:58;;;;;;;9.05;2.00;;;;;;;4.43;100.00;101033.09;5006166;28;20038;-74
2024/03/24 04:32:25;;;;;;;6.38;1.58;;;;;;;4.45;100.00;101031.16;5015661;28;20052;-74
2024/03/24 04:34:51;;;;;;;6.18;1.23;;;;;;;4.55;100.00;101038.22;5040946;28;20034;-74
2024/03/24 04:37:18;;;;;;;7.43;1.80;;;;;;;4.67;100.00;101036.34;5053184;28;20501;-74
2024/03/24 04:39:44;;;;;;;4.80;1.52;;;;;;;4.74;100.00;101023.34;5009607;28;20045;-74
2024/03/24 04:42:09;;;;;;;11.50;1.75;;;;;;;4.74;100.00;101026.84;5019016;28;20041;-74
2024/03/24 04:44:35;;;;;;;9.63;2.13;;;;;;;4.74;100.00;101032.19;5013547;28;20085;-74
2024/03/24 04:47:01;;;;;;;9.48;1.67;;;;;;;4.74;100.00;101040.16;5047004;28;20107;-74
2024/03/24 04:49:26;;;;;;;8.65;1.75;;;;;;;4.76;100.00;101034.69;5050783;28;20037;-74
2024/03/24 04:51:52;;;;;;;8.50;1.63;;;;;;;4.77;100.00;101039.06;5014720;28;20045;-74
2024/03/24 04:54:18;;;;;;;8.23;1.70;;;;;;;4.78;100.00;101043.41;5051389;28;20041;-74
2024/03/24 04:56:43;;;;;;;4.97;1.50;;;;;;;4.78;100.00;101038.06;5011037;28;20064;-75
2024/03/24 04:59:09;;;;;;;3.50;1.05;;;;;;;4.75;100.00;101031.19;5016772;28;20048;-74
2024/03/24 05:01:35;;;;;;;7.55;1.45;;;;;;;4.71;100.00;101035.09;5022169;28;20046;-74
2024/03/24 05:04:00;;;;;;;1.95;1.13;;;;;;;4.64;100.00;101031.28;5047269;28;20040;-74
2024/03/24 05:06:27;;;;;;;9.38;1.75;;;;;;;4.57;100.00;101030.09;5019171;28;20046;-74
2024/03/24 05:08:53;;;;;;;5.07;1.45;;;;;;;4.43;100.00;101036.59;5021743;28;20033;-74
2024/03/24 05:11:19;;;;;;;8.57;1.70;;;;;;;4.30;100.00;101028.78;5044503;28;20107;-74
2024/03/24 05:13:48;;;;;;;9.82;1.42;;;;;;;4.24;100.00;101023.97;5003092;28;20067;-74
2024/03/24 05:16:14;;;;;;;3.38;1.30;;;;;;;4.17;100.00;101028.13;5014438;28;20087;-74
2024/03/24 05:18:40;;;;;;;9.27;1.42;;;;;;;4.11;100.00;101029.47;5004813;28;20435;-76
2024/03/24 05:21:05;;;;;;;10.23;1.52;;;;;;;4.09;100.00;101022.59;5013444;28;20039;-74
2024/03/24 05:23:32;;;;;;;14.60;1.90;;;;;;;4.08;100.00;101020.91;5003938;28;20034;-74
2024/03/24 05:25:57;;;;;;;5.38;1.02;;;;;;;4.10;100.00;101021.59;5017548;28;20099;-75
2024/03/24 05:28:23;;;;;;;6.22;1.45;;;;;;;4.11;100.00;101020.66;5024464;28;20040;-74
2024/03/24 05:30:52;;;;;;;2.05;1.08;;;;;;;4.10;100.00;101019.81;5011277;28;20038;-74
2024/03/24 05:33:19;;;;;;;3.15;1.40;;;;;;;4.14;100.00;101025.72;5033331;28;20033;-74
2024/03/24 05:35:45;;;;;;;6.68;1.55;;;;;;;4.13;100.00;101026.72;5023862;28;20533;-74
2024/03/24 05:38:11;;;;;;;6.25;1.33;;;;;;;4.15;100.00;101027.41;5017405;28;20056;-75
2024/03/24 05:40:37;;;;;;;8.00;1.50;;;;;;;4.17;100.00;101022.81;5018390;28;20055;-74
2024/03/24 05:43:05;;;;;;;9.45;1.73;;;;;;;4.17;100.00;101025.47;5023387;28;20030;-74
2024/03/24 05:45:35;;;;;;;7.65;1.40;;;;;;;4.21;100.00;101026.03;5062839;28;20059;-76
2024/03/24 05:48:01;;;;;;;11.25;1.50;;;;;;;4.23;100.00;101022.28;5014066;28;20500;-74
2024/03/24 05:50:28;;;;;;;4.85;1.20;;;;;;;4.26;100.00;101026.50;5016768;28;20037;-74
2024/03/24 05:52:53;;;;;;;4.20;1.48;;;;;;;4.28;100.00;101020.06;5003107;28;20049;-74
2024/03/24 05:55:19;;;;;;;3.75;0.98;;;;;;;4.30;100.00;101012.81;5019245;28;20048;-74
2024/03/24 05:57:45;;;;;;;7.72;1.70;;;;;;;4.33;100.00;100999.25;5019981;28;20036;-74
2024/03/24 06:00:11;;;;;;;9.15;1.60;;;;;;;4.39;100.00;101004.06;5003929;28;20041;-74
2024/03/24 06:02:37;;;;;;;5.60;1.40;;;;;;;4.47;100.00;101003.38;4998938;28;20099;-74
2024/03/24 06:05:03;;;;;;;3.90;1.50;;;;;;;4.47;100.00;101002.56;5033955;28;20431;-75
2024/03/24 06:07:31;;;;;;;6.88;1.48;;;;;;;4.47;100.00;101006.06;5024484;28;20034;-74
2024/03/24 06:09:57;;;;;;;7.63;1.10;;;;;;;4.44;100.00;101000.16;5028322;28;20479;-75
2024/03/24 06:12:22;;;;;;;5.43;1.60;;;;;;;4.38;100.00;100999.69;5001672;28;20052;-74
2024/03/24 06:14:48;;;;;;;2.67;1.00;;;;;;;4.36;100.00;100996.31;5036072;28;20029;-74
2024/03/24 06:17:14;;;;;;;5.20;1.65;;;;;;;4.34;100.00;100995.63;5029292;28;20395;-74
2024/03/24 06:19:40;;;;;;;9.43;2.13;;;;;;;4.29;100.00;100995.16;5016255;28;20036;-74
2024/03/24 06:22:06;;;;;;;9.02;1.90;;;;;;;4.28;100.00;100996.13;5013558;28;20128;-75
2024/03/24 06:24:32;;;;;;;5.75;2.10;;;;;;;4.29;100.00;100999.66;5019493;28;20038;-75
2024/03/24 06:26:57;;;;;;;5.20;1.70;;;;;;;4.28;100.00;100993.47;5005681;28;20048;-75
2024/03/24 06:29:23;;;;;;;8.18;1.80;;;;;;;4.31;100.00;100997.69;4996424;28;20481;-75
2024/03/24 06:31:49;;;;;;;8.23;2.83;;;;;;;4.33;100.00;100995.75;5043668;28;20033;-74
2024/03/24 06:34:14;;;;;;;9.05;2.83;;;;;;;4.36;100.00;100995.47;5008685;28;20038;-74
2024/03/24 06:36:41;;;;;;;10.77;1.75;;;;;;;4.43;100.00;101003.81;5011231;28;20391;-74
2024/03/24 06:39:08;;;;;;;3.22;1.23;;;;;;;4.54;100.00;101011.72;5007916;28;20188;-74
2024/03/24 06:41:42;;;;;;;4.30;1.20;;;;;;;4.61;100.00;101010.22;5035489;28;20120;-74
2024/03/24 06:44:13;;;;;;;;;;;;;;;4.70;100.00;101009.44;5003974;28;20048;-74
2024/03/24 06:46:43;;;;;;;5.22;1.90;;;;;;;4.74;100.00;101005.53;5036648;28;20010;-74
2024/03/24 06:49:08;;;;;;;6.05;1.73;;;;;;;4.81;100.00;101004.00;5032207;28;20377;-74
2024/03/24 06:51:34;;;;;;;2.88;1.48;;;;;;;4.89;100.00;100997.19;5029779;28;20048;-75
2024/03/24 06:54:00;;;;;;;7.45;1.25;;;;;;;4.90;100.00;101004.22;5031691;28;20472;-74
2024/03/24 06:56:26;;;;;;;6.43;1.35;;;;;;;4.95;100.00;101008.16;5022035;28;20045;-74
2024/03/24 06:58:52;;;;;;;4.47;1.08;;;;;;;5.01;100.00;101002.28;5034314;28;20621;-74
2024/03/24 07:01:20;;;;;;;6.90;1.60;;;;;;;5.07;100.00;101001.75;5011371;28;20094;-74
2024/03/24 07:03:46;;;;;;;4.47;1.42;;;;;;;5.10;100.00;100997.97;5031838;28;20068;-75
2024/03/24 07:06:13;;;;;;;5.07;1.25;;;;;;;5.17;100.00;101003.63;5017598;28;20076;-74
2024/03/24 07:08:40;;;;;;;5.30;1.38;;;;;;;5.23;100.00;101003.06;5024935;28;20052;-74
2024/03/24 07:11:07;;;;;;;5.90;1.30;;;;;;;5.28;100.00;100999.03;5011538;28;20067;-75
2024/03/24 07:13:32;;;;;;;4.97;1.52;;;;;;;5.34;100.00;101002.13;5041341;28;20040;-75
2024/03/24 07:15:58;;;;;;;8.15;1.38;;;;;;;5.40;100.00;100993.56;5031602;28;20082;-74
2024/03/24 07:18:27;;;;;;;6.43;1.38;;;;;;;5.45;100.00;100994.00;5007060;28;20044;-74
2024/03/24 07:21:02;;;;;;;7.60;1.67;;;;;;;5.47;100.00;100987.56;5039658;28;20032;-75
2024/03/24 07:23:29;;;;;;;4.32;1.17;;;;;;;5.50;100.00;100991.78;5002281;28;20041;-74
2024/03/24 07:25:55;;;;;;;7.22;1.60;;;;;;;5.53;100.00;100988.84;4996170;28;20527;-74
2024/03/24 07:28:22;;;;;;;7.50;1.95;;;;;;;5.55;100.00;100984.22;5017707;28;20045;-74
2024/03/24 07:30:48;;;;;;;4.60;1.48;;;;;;;5.60;100.00;100984.63;5030950;28;20028;-74
2024/03/24 07:33:14;;;;;;;5.65;1.40;;;;;;;5.64;100.00;100978.06;5016107;28;20029;-74
2024/03/24 07:35:40;;;;;;;4.63;1.48;;;;;;;5.72;100.00;100980.03;5002396;28;20375;-74
2024/03/24 07:38:06;;;;;;;7.40;2.00;;;;;;;5.78;100.00;100978.63;4999823;28;20033;-74
2024/03/24 07:40:32;;;;;;;7.28;1.55;;;;;;;5.83;100.00;100979.91;5030384;28;20033;-74
2024/03/24 07:42:58;;;;;;;6.00;1.38;;;;;;;5.85;100.00;100979.78;5031124;28;20037;-74
2024/03/24 07:45:23;;;;;;;9.07;1.85;;;;;;;5.86;100.00;100970.78;4999640;28;20029;-74
2024/03/24 07:47:52;;;;;;;8.43;1.73;;;;;;;5.88;100.00;100971.47;5004644;28;20434;-74
2024/03/24 07:50:17;;;;;;;5.55;1.38;;;;;;;5.93;100.00;100971.91;5011136;28;20503;-74
2024/03/24 07:52:43;;;;;;;4.03;1.65;;;;;;;6.00;100.00;100969.53;5017546;28;20041;-74
2024/03/24 07:55:09;;;;;;;5.57;1.50;;;;;;;6.06;100.00;100966.28;5014012;28;20042;-74
2024/03/24 07:57:37;;;;;;;5.43;1.50;;;;;;;6.12;100.00;100974.59;5045880;28;20037;-74
2024/03/24 08:00:04;;;;;;;5.30;1.67;;;;;;;6.21;100.00;100970.22;5019322;28;20037;-74
2024/03/24 08:02:29;;;;;;;6.25;1.90;;;;;;;6.29;100.00;100975.69;4990923;28;20529;-74
2024/03/24 08:04:55;;;;;;;6.60;1.70;;;;;;;6.37;100.00;100966.97;5025489;28;20029;-75
2024/03/24 08:07:21;;;;;;;10.60;1.80;;;;;;;6.46;100.00;100962.59;5032064;28;20041;-74
2024/03/24 08:09:46;;;;;;;7.53;1.58;;;;;;;6.54;100.00;100958.22;5026999;28;20120;-74
2024/03/24 08:12:12;;;;;;;8.18;1.60;;;;;;;6.60;100.00;100964.81;5027297;28;20041;-74
2024/03/24 08:14:41;;;;;;;3.30;1.58;;;;;;;6.58;100.00;100966.78;5040366;28;20086;-74
2024/03/24 08:17:06;;;;;;;5.75;1.50;;;;;;;6.52;100.00;100962.84;5014905;28;20029;-75
2024/03/24 08:19:32;;;;;;;5.65;1.67;;;;;;;6.49;100.00;100960.47;5021172;28;20069;-74
2024/03/24 08:21:57;;;;;;;3.80;1.75;;;;;;;6.44;100.00;100949.38;5025525;28;20041;-74
2024/03/24 08:24:23;;;;;;;6.47;1.45;;;;;;;6.43;100.00;100953.06;5012965;28;20044;-74
2024/03/24 08:26:49;;;;;;;9.52;2.15;;;;;;;6.43;100.00;100947.72;5009802;28;20469;-74
2024/03/24 08:29:14;;;;;;;8.02;3.28;;;;;;;6.42;100.00;100950.50;4988285;28;20042;-74
2024/03/24 08:31:40;;;;;;;10.00;2.00;;;;;;;6.41;100.00;100949.69;4999476;28;20044;-74
2024/03/24 08:34:09;;;;;;;6.00;1.20;;;;;;;6.42;100.00;100947.84;5013807;28;20037;-74
2024/03/24 08:36:35;;;;;;;9.63;1.70;;;;;;;6.44;100.00;100946.72;5009919;28;20034;-74
2024/03/24 08:39:02;;;;;;;3.63;1.67;;;;;;;6.49;100.00;100957.81;5037264;28;20041;-75
2024/03/24 08:41:27;;;;;;;4.97;1.70;;;;;;;6.54;100.00;100958.22;5021705;28;20068;-74
2024/03/24 08:43:55;;;;;;;4.80;1.83;;;;;;;6.60;100.00;100952.28;5038572;28;20481;-75
2024/03/24 08:46:21;;;;;;;3.67;1.52;;;;;;;6.66;100.00;100950.03;5008872;28;20038;-74
2024/03/24 08:48:49;;;;;;;6.97;1.50;;;;;;;6.77;100.00;100947.16;5034990;28;20079;-75
2024/03/24 08:51:15;;;;;;;6.20;1.92;;;;;;;6.88;100.00;100944.34;4994272;28;20045;-75
2024/03/24 08:53:41;;;;;;;6.95;1.40;;;;;;;6.95;100.00;100945.41;5009632;28;20071;-74
2024/03/24 08:56:06;;;;;;;6.07;2.28;;;;;;;7.04;100.00;100943.69;5020086;28;20506;-75
2024/03/24 08:58:32;;;;;;;4.35;1.95;;;;;;;7.08;100.00;100936.22;5016743;28;20042;-75
2024/03/24 09:00:58;;;;;;;6.82;2.03;;;;;;;7.10;100.00;100928.88;5003177;28;20033;-74
2024/03/24 09:03:23;;;;;;;7.05;1.90;;;;;;;7.12;100.00;100925.06;5017859;28;20046;-74
2024/03/24 09:05:50;;;;;;;8.00;1.52;;;;;;;7.18;100.00;100924.47;5011378;28;20049;-74
2024/03/24 09:08:15;;;;;;;7.35;1.42;;;;;;;7.29;100.00;100922.56;5038476;28;20037;-74
2024/03/24 09:10:41;;;;;;;4.65;1.88;;;;;;;7.41;100.00;100911.53;5031924;28;20071;-75
2024/03/24 09:13:06;;;;;;;5.07;1.35;;;;;;;7.49;100.00;100914.28;5019767;28;20535;-74
2024/03/24 09:15:34;;;;;;;4.60;1.20;;;;;;;7.53;100.00;100909.44;5016683;28;20090;-75
2024/03/24 09:18:01;;;;;;;6.88;1.30;;;;;;;7.45;100.00;100902.19;5028897;28;20043;-74
2024/03/24 09:20:26;;;;;;;4.70;1.40;;;;;;;7.38;100.00;100910.97;5019329;28;20040;-75
2024/03/24 09:22:52;;;;;;;6.35;1.33;;;;;;;7.34;100.00;100915.78;5037487;28;20049;-74
2024/03/24 09:25:18;;;;;;;5.72;1.75;;;;;;;7.35;100.00;100905.91;5014435;28;20040;-73
2024/03/24 09:27:48;;;;;;;13.05;5.50;;;;;;;7.32;100.00;100893.69;5025161;28;20033;-74
2024/03/24 09:30:14;;;;;;;25.52;9.82;;;;;;;7.22;100.00;100884.88;5017697;28;20129;-73
2024/03/24 09:32:46;;;;;;;14.55;6.32;;;;;;;7.05;100.00;100898.06;5003989;28;20468;-74
2024/03/24 09:35:12;;;;;;;6.97;3.67;;;;;;;6.92;100.00;100891.41;5019529;28;20083;-73
2024/03/24 09:37:38;;;;;;;6.63;2.03;;;;;;;6.87;100.00;100893.69;5003296;28;20487;-73
2024/03/24 09:40:04;;;;;;;4.45;2.22;;;;;;;6.94;100.00;100886.75;5006626;28;20045;-73
2024/03/24 09:42:31;;;;;;;5.00;2.10;;;;;;;6.97;100.00;100879.28;5034299;28;20045;-73
2024/03/24 09:45:00;;;;;;;6.43;2.20;;;;;;;6.96;100.00;100877.59;5028757;28;20033;-73
2024/03/24 09:47:26;;;;;;;5.47;1.90;;;;;;;6.94;100.00;100876.91;5033689;28;20086;-73
2024/03/24 09:49:52;;;;;;;5.10;2.00;;;;;;;7.00;100.00;100862.94;5004578;28;20037;-74
2024/03/24 09:52:20;;;;;;;5.05;1.83;;;;;;;6.96;100.00;100869.56;5003445;28;20045;-73
2024/03/24 09:54:47;;;;;;;5.53;1.65;;;;;;;6.97;100.00;100865.91;5042253;28;20087;-74
2024/03/24 09:57:15;;;;;;;5.47;1.83;;;;;;;7.05;100.00;100862.47;5029273;28;20037;-73
2024/03/24 09:59:42;;;;;;;7.70;1.80;;;;;;;7.08;100.00;100864.00;5002378;28;20048;-73
2024/03/24 10:02:09;;;;;;;8.52;1.60;;;;;;;7.03;100.00;100859.94;5054847;28;20025;-73
2024/03/24 10:04:35;;;;;;;4.47;1.67;;;;;;;7.07;100.00;100855.16;5014365;28;20045;-73
2024/03/24 10:07:01;;;;;;;5.55;1.77;;;;;;;7.16;100.00;100856.91;5021690;28;20034;-73
2024/03/24 10:09:27;;;;;;;6.30;1.70;;;;;;;7.15;100.00;100857.09;5000819;28;20032;-73
2024/03/24 10:11:53;;;;;;;5.28;1.58;;;;;;;7.06;100.00;100853.47;5000792;28;20475;-73
2024/03/24 10:14:24;;;;;;;7.28;1.95;;;;;;;7.16;100.00;100850.72;5000659;28;20037;-73
2024/03/24 10:16:50;;;;;;;9.65;2.10;;;;;;;7.34;100.00;100851.59;5043709;28;20441;-72
2024/03/24 10:19:16;;;;;;;5.32;1.70;;;;;;;7.44;100.00;100843.50;5011125;28;20120;-72
2024/03/24 10:21:42;;;;;;;5.13;1.98;;;;;;;7.42;100.00;100840.97;5031704;28;20123;-72
2024/03/24 10:24:09;;;;;;;6.25;2.05;;;;;;;7.35;100.00;100837.19;5020372;28;20204;-72
2024/03/24 10:26:38;;;;;;;8.52;1.40;;;;;;;7.47;100.00;100830.63;5020373;28;20032;-72
2024/03/24 10:29:06;;;;;;;16.40;7.35;;;;;;;7.69;100.00;100825.78;5009026;28;20052;-74
2024/03/24 10:31:36;;;;;;;12.40;4.68;;;;;;;7.86;100.00;100819.56;5002581;28;20088;-74
2024/03/24 10:34:02;;;;;;;2.83;1.70;;;;;;;7.92;100.00;100810.06;5016582;28;20038;-75
2024/03/24 10:36:31;;;;;;;7.85;3.20;;;;;;;8.00;100.00;100806.63;5016804;28;20100;-74
2024/03/24 10:38:56;;;;;;;8.32;3.90;;;;;;;8.18;100.00;100811.88;5046064;28;20464;-74
2024/03/24 10:41:26;;;;;;;2.55;1.85;;;;;;;8.28;100.00;100813.47;5020041;28;20048;-74
2024/03/24 10:43:52;;;;;;;8.20;2.05;;;;;;;8.17;100.00;100804.84;5019562;28;20029;-74
2024/03/24 10:46:19;;;;;;;5.72;1.67;;;;;;;8.24;100.00;100803.22;5018192;28;20037;-74
2024/03/24 10:48:45;;;;;;;4.32;1.83;;;;;;;8.36;100.00;100793.91;5007091;28;20034;-74
2024/03/24 10:51:13;;;;;;;3.92;1.60;;;;;;;8.45;100.00;100795.66;4997811;28;20041;-73
2024/03/24 10:53:38;;;;;;;2.30;1.70;;;;;;;8.51;100.00;100794.16;5049906;28;20507;-73
2024/03/24 10:56:04;;;;;;;3.60;1.73;;;;;;;8.77;100.00;100792.25;5031255;28;20030;-74
2024/03/24 10:58:30;;;;;;;4.28;1.98;;;;;;;8.99;100.00;100789.94;5008582;28;20137;-74
2024/03/24 11:00:57;;;;;;;3.42;1.83;;;;;;;8.95;100.00;100784.09;5013327;28;20025;-74
2024/03/24 11:03:23;;;;;;;2.95;1.90;;;;;;;8.72;100.00;100786.53;5019227;28;20500;-74
2024/03/24 11:05:55;;;;;;;3.17;1.63;;;;;;;8.30;100.00;100781.97;5012551;28;20461;-74
2024/03/24 11:08:23;;;;;;;3.28;2.00;;;;;;;8.12;100.00;100775.88;5007031;28;20079;-74
2024/03/24 11:10:50;;;;;;;2.17;1.58;;;;;;;8.33;100.00;100770.94;5032756;28;20037;-74
2024/03/24 11:13:27;;;;;;;4.65;2.40;;;;;;;8.53;100.00;100768.06;5015954;28;20042;-74
2024/03/24 11:16:11;;;;;;;5.40;2.33;;;;;;;8.57;100.00;100756.84;5000007;28;20492;-74
2024/03/24 11:18:37;;;;;;;3.28;1.98;;;;;;;8.36;100.00;100759.94;5032801;28;20034;-74
2024/03/24 11:21:06;;;;;;;3.47;2.20;;;;;;;8.20;100.00;100751.81;4999604;28;20045;-74